Time;durP1;ratioP1;P1;durP2;ratioP2;P2;SDS_P1;SDS_P2;PMS_P1;PMS_P2;Temp;Humidity;BMP_temperature;BMP_pressure;BME280_temperature;BME280_humidity;BME280_pressure;Samples;Min_cycle;Max_cycle;Signal;HPM_P1;HPM_P2
2021/03/10 09:21:43;;;;;;;16.70;11.88;;;;;;;;;;5057378;28;20809;-53
2021/03/10 09:24:10;;;;;;;12.50;11.02;;;;;;;;;;5041037;28;20055;-53
2021/03/10 09:26:39;;;;;;;15.13;11.38;;;;;;;;;;5038074;28;20036;-55
2021/03/10 09:29:06;;;;;;;14.88;10.48;;;;;;;;;;5023090;28;20044;-53
2021/03/10 09:31:32;;;;;;;13.82;10.95;;;;;;;;;;5014200;28;20046;-52
2021/03/10 09:36:27;;;;;;;15.32;11.93;;;;;;;;;;2096158;27;83294;-47
2021/03/10 09:37:49;;;;;;;18.73;12.18;;;;;;;20.12;42.41;100341.50;2098825;27;20540;-46
2021/03/10 09:38:54;;;;;;;20.58;14.45;;;;;;;19.96;40.74;100341.25;2090692;28;20090;-49
2021/03/10 09:39:54;;;;;;;19.00;14.60;;;;;;;19.97;43.04;100343.00;2092180;28;20033;-49
2021/03/10 09:40:59;;;;;;;20.87;14.80;;;;;;;20.01;42.97;100338.94;2084795;28;20025;-53
2021/03/10 09:42:04;;;;;;;18.98;14.05;;;;;;;20.05;43.21;100343.09;2086375;28;20128;-49
2021/03/10 09:43:16;;;;;;;17.70;13.13;;;;;;;20.10;43.57;100342.66;2089624;28;20115;-51
2021/03/10 09:44:16;;;;;;;15.57;12.68;;;;;;;20.17;43.47;100342.91;2087618;28;20029;-49
2021/03/10 09:45:22;;;;;;;18.80;13.37;;;;;;;20.20;43.70;100342.63;2087306;28;20032;-49
2021/03/10 09:46:23;;;;;;;15.57;12.18;;;;;;;20.21;43.73;100338.84;2087343;28;20045;-49
2021/03/10 09:47:25;;;;;;;15.43;11.53;;;;;;;20.21;43.91;100344.31;2090363;28;20374;-52
2021/03/10 09:48:48;;;;;;;17.55;11.65;;;;;;;20.22;43.92;100344.19;2086034;28;20021;-50
2021/03/10 09:49:57;;;;;;;17.45;13.07;;;;;;;20.22;43.80;100335.13;2086139;28;20040;-50
2021/03/10 09:51:06;;;;;;;14.82;11.98;;;;;;;20.21;43.73;100333.38;2086450;28;20103;-49
2021/03/10 09:52:06;;;;;;;15.57;12.88;;;;;;;20.21;43.45;100327.91;2087292;28;20037;-49
2021/03/10 09:53:16;;;;;;;16.47;12.90;;;;;;;20.20;43.27;100338.00;2086946;28;20116;-51
2021/03/10 09:54:16;;;;;;;19.27;12.73;;;;;;;20.18;43.41;100334.53;2087833;28;20074;-52
2021/03/10 09:55:23;;;;;;;15.70;13.33;;;;;;;20.18;43.17;100334.53;2087186;28;20443;-52
2021/03/10 09:56:24;;;;;;;18.63;13.85;;;;;;;20.19;43.18;100335.44;2087002;28;20025;-49
2021/03/10 09:57:27;;;;;;;18.08;12.82;;;;;;;20.18;42.78;100330.94;2086520;28;20021;-51
2021/03/10 09:58:28;;;;;;;18.58;13.27;;;;;;;20.16;42.69;100331.09;2085199;28;20690;-49
2021/03/10 09:59:33;;;;;;;18.90;12.47;;;;;;;20.16;42.56;100332.97;2084229;28;20059;-53
2021/03/10 10:00:34;;;;;;;21.00;13.98;;;;;;;20.08;42.05;100329.09;2086336;28;20382;-49
2021/03/10 10:01:44;;;;;;;15.27;13.52;;;;;;;19.96;41.93;100330.31;2083591;28;20036;-51
2021/03/10 10:02:46;;;;;;;23.05;15.48;;;;;;;19.95;41.50;100331.34;2088539;28;20086;-51
2021/03/10 10:03:47;;;;;;;23.23;14.75;;;;;;;19.98;41.64;100333.75;2088104;28;20041;-53
2021/03/10 10:04:58;;;;;;;17.80;13.87;;;;;;;19.99;41.76;100327.31;2089381;28;20144;-48
2021/03/10 10:06:06;;;;;;;18.15;13.15;;;;;;;20.05;41.77;100332.16;2086308;28;20028;-48
2021/03/10 10:07:08;;;;;;;16.17;11.93;;;;;;;20.09;41.80;100325.38;2086275;28;20021;-49
2021/03/10 10:08:10;;;;;;;;;;;;;;;20.09;41.92;100330.84;2088428;28;20067;-49
2021/03/10 10:09:10;;;;;;;20.50;12.20;;;;;;;20.09;42.04;100328.13;2087009;28;19924;-54
2021/03/10 10:10:10;;;;;;;17.47;12.03;;;;;;;20.10;42.03;100327.09;2086952;28;20105;-48
2021/03/10 10:11:12;;;;;;;21.90;12.20;;;;;;;20.10;42.01;100327.09;2068053;28;20163;-51
2021/03/10 10:12:12;;;;;;;17.58;12.43;;;;;;;20.10;42.17;100318.88;2087718;28;20017;-49
2021/03/10 10:13:18;;;;;;;27.30;18.27;;;;;;;20.08;42.02;100318.16;2091768;28;20059;-52
2021/03/10 10:14:18;;;;;;;28.98;18.23;;;;;;;20.09;41.97;100308.97;2094882;28;20028;-50
2021/03/10 10:15:21;;;;;;;28.33;20.10;;;;;;;20.09;42.12;100317.16;2099792;28;20032;-49
2021/03/10 10:16:22;;;;;;;34.35;22.48;;;;;;;20.12;42.08;100322.34;2093233;28;20092;-50
2021/03/10 10:17:22;;;;;;;28.20;19.50;;;;;;;20.09;42.24;100325.38;2093950;28;20013;-52
2021/03/10 10:18:23;;;;;;;27.23;19.90;;;;;;;20.06;42.30;100314.75;2087294;28;20158;-52
2021/03/10 10:19:24;;;;;;;29.53;20.20;;;;;;;20.09;42.40;100317.16;2093703;28;20024;-51
2021/03/10 10:20:30;;;;;;;26.10;19.47;;;;;;;20.14;42.44;100311.25;2092546;28;20069;-50
2021/03/10 10:21:30;;;;;;;31.02;21.00;;;;;;;20.18;42.19;100309.91;2087695;28;20033;-50
2021/03/10 10:22:31;;;;;;;23.07;19.37;;;;;;;20.21;42.54;100314.22;2095115;28;20054;-46
2021/03/10 10:23:32;;;;;;;29.47;20.17;;;;;;;20.21;42.64;100312.38;2095372;28;20462;-50
2021/03/10 10:24:32;;;;;;;24.93;19.60;;;;;;;20.26;42.70;100303.66;2094275;28;20032;-50
2021/03/10 10:25:33;;;;;;;30.10;19.50;;;;;;;20.30;42.43;100305.94;2094987;28;20084;-50
2021/03/10 10:26:33;;;;;;;27.52;19.17;;;;;;;20.30;42.83;100305.09;2097234;28;20024;-50
2021/03/10 10:27:34;;;;;;;27.87;20.80;;;;;;;20.31;42.65;100310.44;2099374;28;20025;-51
2021/03/10 10:28:35;;;;;;;24.90;19.07;;;;;;;20.32;42.75;100314.03;2095135;28;20043;-50
2021/03/10 10:29:35;;;;;;;29.77;19.47;;;;;;;20.31;43.17;100306.84;2088935;28;20705;-49
2021/03/10 10:30:36;;;;;;;31.60;19.83;;;;;;;20.25;42.83;100305.56;2096179;28;20032;-53
2021/03/10 10:31:36;;;;;;;26.77;20.07;;;;;;;20.22;42.87;100307.75;2095831;28;20024;-49
2021/03/10 10:32:37;;;;;;;28.53;20.43;;;;;;;20.20;42.65;100305.16;2094804;28;20028;-49
2021/03/10 10:33:37;;;;;;;27.07;21.97;;;;;;;20.13;41.57;100310.34;2095950;28;20032;-49
2021/03/10 10:34:38;;;;;;;27.63;21.57;;;;;;;20.10;41.08;100305.19;2094830;28;20033;-52
2021/03/10 10:35:38;;;;;;;27.93;20.60;;;;;;;20.11;39.97;100300.56;2092792;28;20138;-50
2021/03/10 10:36:39;;;;;;;24.23;19.23;;;;;;;20.11;40.48;100301.47;2095661;28;20028;-50
2021/03/10 10:37:40;;;;;;;30.00;19.53;;;;;;;20.09;39.84;100300.75;2095520;28;20128;-50
2021/03/10 10:38:40;;;;;;;25.60;19.33;;;;;;;20.10;39.46;100299.72;2095806;28;20025;-51
2021/03/10 10:39:41;;;;;;;25.40;18.17;;;;;;;20.11;39.36;100298.72;2094602;28;20029;-51
2021/03/10 10:40:41;;;;;;;25.30;17.90;;;;;;;20.11;39.34;100297.84;2095163;28;20422;-52
2021/03/10 10:41:41;;;;;;;27.07;18.70;;;;;;;20.09;39.30;100298.00;2095126;28;20040;-53
2021/03/10 10:42:42;;;;;;;23.17;18.07;;;;;;;20.10;38.76;100297.00;2094759;28;20427;-51
2021/03/10 10:43:42;;;;;;;31.23;18.83;;;;;;;20.08;39.07;100296.28;2095825;28;20017;-51
2021/03/10 10:44:43;;;;;;;29.63;19.27;;;;;;;20.09;39.27;100298.00;2093593;28;20029;-51
2021/03/10 10:45:44;;;;;;;22.70;17.73;;;;;;;20.06;38.92;100286.50;2095786;28;20024;-51
2021/03/10 10:46:45;;;;;;;28.60;19.47;;;;;;;20.05;38.04;100291.09;2093816;28;20024;-54
2021/03/10 10:47:46;;;;;;;22.90;17.50;;;;;;;20.09;38.58;100280.75;2090642;28;20021;-54
2021/03/10 10:48:46;;;;;;;25.95;18.27;;;;;;;20.13;39.05;100288.47;2095310;28;20025;-53
2021/03/10 10:49:47;;;;;;;30.03;18.10;;;;;;;20.16;39.39;100286.44;2091016;28;20119;-53
2021/03/10 10:50:47;;;;;;;26.93;18.30;;;;;;;20.21;39.87;100276.78;2095360;28;20104;-51
2021/03/10 10:51:47;;;;;;;23.87;17.03;;;;;;;20.26;39.25;100276.28;2088290;28;20028;-55
2021/03/10 10:52:48;;;;;;;20.70;16.13;;;;;;;20.30;39.98;100272.25;2084646;28;20323;-53
2021/03/10 10:53:49;;;;;;;22.60;15.77;;;;;;;20.34;40.58;100279.16;2090341;28;20054;-52
2021/03/10 10:54:49;;;;;;;20.60;15.90;;;;;;;20.35;40.38;100273.50;2089517;28;20056;-54
2021/03/10 10:55:50;;;;;;;23.60;16.57;;;;;;;20.38;40.54;100268.75;2090427;28;20029;-53
2021/03/10 10:56:51;;;;;;;20.47;15.87;;;;;;;20.39;41.26;100270.47;2090541;28;20052;-51
2021/03/10 10:57:52;;;;;;;19.25;15.52;;;;;;;20.40;41.02;100272.19;2090048;28;20104;-54
2021/03/10 10:58:52;;;;;;;26.97;16.73;;;;;;;20.41;41.04;100272.03;2090091;28;20021;-51
2021/03/10 10:59:53;;;;;;;32.80;16.37;;;;;;;20.41;40.98;100268.44;2084179;28;20431;-52
2021/03/10 11:00:54;;;;;;;23.38;14.82;;;;;;;20.41;41.02;100266.56;2090362;28;20021;-52
2021/03/10 11:01:54;;;;;;;19.27;14.57;;;;;;;20.42;41.06;100265.53;2089722;28;20515;-53
2021/03/10 11:02:55;;;;;;;21.03;15.90;;;;;;;20.42;41.24;100265.53;2093295;28;20039;-53
2021/03/10 11:03:55;;;;;;;19.67;14.10;;;;;;;20.44;41.23;100271.72;2082089;28;20443;-51
2021/03/10 11:04:56;;;;;;;20.93;15.30;;;;;;;20.42;41.17;100260.06;2084364;28;20040;-52
2021/03/10 11:05:56;;;;;;;20.17;14.27;;;;;;;20.42;41.35;100265.53;2090092;28;20068;-54
2021/03/10 11:06:57;;;;;;;21.67;13.77;;;;;;;20.42;41.41;100271.00;2088853;28;20048;-54
2021/03/10 11:07:57;;;;;;;18.60;13.83;;;;;;;20.44;41.44;100265.41;2089468;28;20112;-50
2021/03/10 11:08:57;;;;;;;21.60;14.13;;;;;;;20.43;41.65;100258.19;2089646;28;20036;-49
2021/03/10 11:09:58;;;;;;;19.00;14.23;;;;;;;20.42;41.65;100260.06;2089672;28;20032;-49
2021/03/10 11:10:59;;;;;;;20.77;14.13;;;;;;;20.41;41.77;100262.97;2089701;28;20508;-50
2021/03/10 11:12:00;;;;;;;19.00;13.37;;;;;;;20.41;41.60;100260.25;2088983;28;20025;-51
2021/03/10 11:13:00;;;;;;;19.92;14.25;;;;;;;20.40;41.55;100266.72;2090169;28;20136;-49
2021/03/10 11:14:02;;;;;;;15.53;12.83;;;;;;;20.39;41.75;100260.38;2089761;28;20052;-53
2021/03/10 11:15:03;;;;;;;22.85;14.70;;;;;;;20.39;41.63;100256.78;2087460;28;20583;-51
2021/03/10 11:16:04;;;;;;;17.77;13.38;;;;;;;20.37;41.73;100259.66;2088034;28;20049;-51
2021/03/10 11:17:06;;;;;;;25.40;14.20;;;;;;;20.37;41.97;100259.66;2088814;28;20025;-52
2021/03/10 11:18:06;;;;;;;;;;;;;;;20.37;41.98;100258.81;2090481;28;20037;-52
2021/03/10 11:19:07;;;;;;;19.40;12.50;;;;;;;20.37;41.83;100259.66;2089312;28;19924;-52
2021/03/10 11:20:08;;;;;;;22.80;14.10;;;;;;;20.37;42.07;100250.59;2089860;28;20033;-53
2021/03/10 11:21:09;;;;;;;18.38;12.77;;;;;;;20.37;41.86;100256.06;2088612;28;20170;-50
2021/03/10 11:22:09;;;;;;;15.60;12.43;;;;;;;20.37;41.95;100256.94;2089995;28;20071;-50
2021/03/10 11:23:10;;;;;;;15.17;12.23;;;;;;;20.36;42.20;100255.22;2089939;28;20045;-50
2021/03/10 11:24:10;;;;;;;17.63;12.23;;;;;;;20.31;42.08;100252.09;2090118;28;20353;-52
2021/03/10 11:25:11;;;;;;;19.87;13.97;;;;;;;20.31;41.92;100263.03;2089531;28;20032;-53
2021/03/10 11:26:12;;;;;;;17.25;12.75;;;;;;;20.30;42.14;100255.81;2089675;28;20047;-51
2021/03/10 11:27:17;;;;;;;17.40;12.23;;;;;;;20.30;42.39;100250.34;2088628;28;20042;-52
2021/03/10 11:28:17;;;;;;;15.73;11.93;;;;;;;20.28;42.32;100255.97;2090128;28;20293;-51
2021/03/10 11:29:18;;;;;;;15.00;11.67;;;;;;;20.28;42.27;100261.44;2088981;28;20035;-55
2021/03/10 11:30:20;;;;;;;19.67;12.93;;;;;;;20.29;42.24;100256.84;2086645;28;20028;-50
2021/03/10 11:31:20;;;;;;;;;;;;;;;20.29;42.33;100248.63;2089603;28;20047;-51
2021/03/10 11:32:20;;;;;;;17.23;12.13;;;;;;;20.30;42.32;100250.34;2090259;28;20338;-48
2021/03/10 11:33:21;;;;;;;19.23;13.33;;;;;;;20.28;42.50;100247.75;2097320;28;20112;-53
2021/03/10 11:34:21;;;;;;;14.87;11.60;;;;;;;20.30;42.56;100250.34;2088020;28;20040;-51
2021/03/10 11:35:23;;;;;;;14.53;11.53;;;;;;;20.28;42.57;100244.16;2088984;28;20112;-52
2021/03/10 11:36:23;;;;;;;18.10;11.30;;;;;;;20.29;42.44;100243.16;2088558;28;20486;-50
2021/03/10 11:37:24;;;;;;;18.57;11.37;;;;;;;20.27;42.63;100245.19;2088175;28;20052;-48
2021/03/10 11:38:24;;;;;;;14.63;11.33;;;;;;;20.26;42.55;100243.44;2087364;28;20378;-48
2021/03/10 11:39:25;;;;;;;13.30;11.43;;;;;;;20.27;42.54;100237.84;2086962;28;20091;-48
2021/03/10 11:40:25;;;;;;;19.27;11.70;;;;;;;20.24;42.69;100234.56;2090399;28;20078;-49
2021/03/10 11:41:26;;;;;;;17.23;11.00;;;;;;;20.24;42.66;100229.09;2091859;28;20035;-50
2021/03/10 11:42:26;;;;;;;17.93;13.03;;;;;;;20.22;42.94;100229.22;2089217;28;20033;-48
2021/03/10 11:43:27;;;;;;;17.20;11.30;;;;;;;20.22;42.80;100229.22;2089432;28;20024;-49
2021/03/10 11:44:27;;;;;;;19.17;10.83;;;;;;;20.23;42.59;100221.88;2088598;28;20037;-50
2021/03/10 11:45:28;;;;;;;14.53;11.17;;;;;;;20.22;42.68;100217.41;2089088;28;20091;-51
2021/03/10 11:46:28;;;;;;;15.97;11.70;;;;;;;20.22;42.56;100215.53;2088285;28;20251;-54
2021/03/10 11:47:29;;;;;;;17.13;11.53;;;;;;;20.12;42.87;100221.06;2089055;28;20044;-50
2021/03/10 11:48:29;;;;;;;14.67;11.50;;;;;;;20.05;42.77;100210.91;2087173;28;20146;-51
2021/03/10 11:49:30;;;;;;;17.43;12.60;;;;;;;20.05;42.67;100213.63;2087824;28;20033;-51
2021/03/10 11:50:30;;;;;;;14.27;12.63;;;;;;;20.07;42.59;100217.94;2088586;28;20045;-52
2021/03/10 11:51:32;;;;;;;13.40;10.90;;;;;;;20.11;42.56;100208.41;2089083;28;20054;-50
2021/03/10 11:52:33;;;;;;;17.95;11.27;;;;;;;20.17;42.52;100206.09;2090370;28;20044;-51
2021/03/10 11:53:34;;;;;;;13.37;10.77;;;;;;;20.20;42.56;100203.03;2083647;28;20124;-52
2021/03/10 11:54:34;;;;;;;16.03;11.23;;;;;;;20.23;42.54;100206.28;2089708;28;20258;-50
2021/03/10 11:55:36;;;;;;;13.00;10.70;;;;;;;20.25;42.60;100208.91;2089427;28;20032;-50
2021/03/10 11:56:37;;;;;;;;;;;;;;;20.26;42.70;100208.75;2089374;28;20067;-51
2021/03/10 11:57:37;;;;;;;16.98;11.23;;;;;;;20.28;42.61;100208.56;2089256;28;19968;-50
2021/03/10 11:58:39;;;;;;;17.83;11.33;;;;;;;20.26;42.89;100205.13;2088590;28;20395;-53
2021/03/10 11:59:39;;;;;;;16.63;10.82;;;;;;;20.26;42.90;100199.66;2086970;28;21387;-52
2021/03/10 12:00:41;;;;;;;16.20;10.67;;;;;;;20.28;42.80;100208.56;2083710;28;20060;-50
2021/03/10 12:01:41;;;;;;;14.80;10.23;;;;;;;20.26;42.89;100195.06;2089009;28;20031;-48
2021/03/10 12:02:41;;;;;;;19.27;10.37;;;;;;;20.27;42.92;100201.38;2091998;28;20409;-48
2021/03/10 12:03:42;;;;;;;17.80;11.17;;;;;;;20.27;43.03;100193.19;2090415;28;20025;-51
2021/03/10 12:04:42;;;;;;;15.20;11.63;;;;;;;20.25;43.23;100193.31;2092339;28;20027;-48
2021/03/10 12:05:43;;;;;;;14.33;10.63;;;;;;;20.25;43.16;100189.72;2090080;28;20025;-49
2021/03/10 12:06:43;;;;;;;16.07;10.43;;;;;;;20.25;43.05;100187.00;2093177;28;20573;-49
2021/03/10 12:07:44;;;;;;;17.67;11.50;;;;;;;20.24;43.08;100202.56;2093372;28;20457;-48
2021/03/10 12:08:45;;;;;;;13.50;10.30;;;;;;;20.24;43.13;100196.22;2090093;28;20092;-48
2021/03/10 12:09:45;;;;;;;15.03;11.10;;;;;;;20.23;43.33;100197.22;2094336;28;20028;-49
2021/03/10 12:10:45;;;;;;;16.50;10.80;;;;;;;20.19;43.25;100193.09;2089167;28;20055;-48
2021/03/10 12:11:46;;;;;;;16.27;10.07;;;;;;;20.17;43.29;100200.59;2090157;28;20060;-48
2021/03/10 12:12:47;;;;;;;15.70;11.10;;;;;;;20.16;43.54;100199.72;2097625;28;20043;-48
2021/03/10 12:13:47;;;;;;;13.57;10.10;;;;;;;20.15;43.56;100195.28;2093920;28;20860;-48
2021/03/10 12:14:48;;;;;;;13.37;10.03;;;;;;;20.13;43.44;100200.88;2090269;28;20713;-48
2021/03/10 12:15:48;;;;;;;13.70;10.20;;;;;;;20.12;43.61;100196.44;2095594;28;20032;-47
2021/03/10 12:16:48;;;;;;;15.60;10.53;;;;;;;20.04;43.93;100195.47;2090938;28;20024;-48
2021/03/10 12:17:49;;;;;;;12.90;9.97;;;;;;;19.92;44.25;100192.13;2091859;28;20020;-48
2021/03/10 12:18:49;;;;;;;27.37;13.80;;;;;;;19.75;43.57;100192.94;2090163;28;20390;-51
2021/03/10 12:19:50;;;;;;;19.27;13.60;;;;;;;19.66;42.81;100189.19;2095387;28;20024;-48
2021/03/10 12:20:50;;;;;;;23.57;14.90;;;;;;;19.50;41.43;100184.38;2090655;28;20036;-48
2021/03/10 12:21:51;;;;;;;17.33;12.80;;;;;;;19.48;41.55;100183.66;2096219;28;20053;-48
2021/03/10 12:22:51;;;;;;;19.67;13.53;;;;;;;19.49;42.32;100185.38;2093822;28;20032;-50
2021/03/10 12:23:52;;;;;;;19.80;14.03;;;;;;;19.45;42.36;100178.47;2094936;28;20377;-50
2021/03/10 12:24:52;;;;;;;17.67;12.93;;;;;;;19.49;42.49;100186.22;2091889;28;20048;-49
2021/03/10 12:25:52;;;;;;;13.43;10.77;;;;;;;19.52;42.84;100185.06;2088846;28;20057;-49
2021/03/10 12:26:53;;;;;;;19.90;12.53;;;;;;;19.58;42.50;100179.00;2091758;28;20114;-46
2021/03/10 12:27:56;;;;;;;19.63;13.00;;;;;;;19.68;42.27;100179.00;2092276;28;20067;-49
2021/03/10 12:28:56;;;;;;;16.02;11.00;;;;;;;19.73;42.49;100182.13;2090049;28;20037;-48
2021/03/10 12:29:57;;;;;;;18.37;11.87;;;;;;;19.79;42.78;100183.41;2091567;28;20017;-48
2021/03/10 12:30:58;;;;;;;15.75;11.93;;;;;;;19.82;43.06;100174.88;2087667;28;20033;-48
2021/03/10 12:31:58;;;;;;;12.57;11.03;;;;;;;19.84;43.04;100173.75;2082171;28;20159;-48
2021/03/10 12:32:59;;;;;;;18.00;12.77;;;;;;;19.89;42.93;100170.50;2090479;28;20027;-47
2021/03/10 12:33:59;;;;;;;16.10;13.47;;;;;;;19.90;43.10;100178.59;2091474;28;20597;-47
2021/03/10 12:34:59;;;;;;;19.67;14.63;;;;;;;19.91;43.23;100174.81;2093971;28;20029;-47
2021/03/10 12:36:00;;;;;;;17.63;14.10;;;;;;;19.94;43.15;100168.19;2094758;28;20372;-47
2021/03/10 12:37:00;;;;;;;17.50;14.17;;;;;;;19.94;43.31;100173.66;2087811;28;20087;-48
2021/03/10 12:38:01;;;;;;;15.40;12.70;;;;;;;19.96;43.14;100174.34;2089226;28;20040;-49
2021/03/10 12:39:04;;;;;;;15.67;13.97;;;;;;;19.96;43.16;100174.34;2090120;28;20346;-48
2021/03/10 12:40:05;;;;;;;17.08;13.82;;;;;;;19.97;43.35;100162.41;2091816;28;20093;-51
2021/03/10 12:41:05;;;;;;;22.65;15.05;;;;;;;19.98;43.41;100160.53;2090648;28;20024;-48
2021/03/10 12:42:08;;;;;;;18.60;14.50;;;;;;;19.97;43.18;100159.69;2086537;28;20037;-49
2021/03/10 12:43:09;;;;;;;16.67;13.80;;;;;;;19.97;43.45;100156.94;2087139;28;20454;-51
2021/03/10 12:44:09;;;;;;;17.93;13.73;;;;;;;19.98;43.49;100157.81;2085731;28;20127;-49
2021/03/10 12:45:10;;;;;;;19.70;14.10;;;;;;;19.96;43.66;100155.22;2087386;28;20060;-50
2021/03/10 12:46:10;;;;;;;18.90;14.40;;;;;;;19.97;43.57;100156.09;2085510;28;20032;-49
2021/03/10 12:47:12;;;;;;;15.90;13.27;;;;;;;19.97;43.64;100156.94;2086718;28;20029;-50
2021/03/10 12:48:12;;;;;;;19.63;14.27;;;;;;;19.97;43.63;100156.94;2092411;28;20475;-53
2021/03/10 12:49:12;;;;;;;15.73;13.53;;;;;;;19.96;43.77;100155.22;2093433;28;20044;-49
2021/03/10 12:50:14;;;;;;;16.23;13.07;;;;;;;19.97;43.80;100148.75;2089124;28;20028;-50
2021/03/10 12:51:14;;;;;;;16.02;13.80;;;;;;;19.96;43.84;100149.75;2089551;28;20048;-49
2021/03/10 12:52:15;;;;;;;15.93;12.40;;;;;;;19.95;44.00;100145.28;2094436;28;20024;-49
2021/03/10 12:53:16;;;;;;;16.90;13.53;;;;;;;19.95;43.91;100150.75;2091131;28;20021;-51
2021/03/10 12:54:17;;;;;;;19.00;13.27;;;;;;;19.98;43.79;100147.72;2084446;28;20099;-51
2021/03/10 12:55:17;;;;;;;21.80;12.93;;;;;;;19.98;43.56;100144.97;2091813;28;20576;-54
2021/03/10 12:56:18;;;;;;;21.50;13.20;;;;;;;19.98;43.85;100150.44;2088780;28;20070;-54
2021/03/10 12:57:18;;;;;;;15.67;12.23;;;;;;;19.96;43.91;100143.41;2087352;28;20127;-52
2021/03/10 12:58:19;;;;;;;16.63;13.27;;;;;;;19.96;43.82;100148.88;2086239;28;20104;-53
2021/03/10 12:59:20;;;;;;;15.73;13.73;;;;;;;19.96;44.00;100143.41;2086674;28;20431;-51
2021/03/10 13:00:22;;;;;;;16.85;13.85;;;;;;;19.94;43.81;100135.34;2083099;28;20513;-53
2021/03/10 13:01:23;;;;;;;;;;;;;;;19.95;43.93;100136.22;2083206;28;20028;-53
2021/03/10 13:02:23;;;;;;;18.60;14.18;;;;;;;19.95;43.92;100137.09;2082482;28;20338;-54
2021/03/10 13:03:24;;;;;;;19.50;14.70;;;;;;;19.95;43.83;100134.34;2086819;28;20028;-53
2021/03/10 13:04:25;;;;;;;18.03;13.53;;;;;;;19.95;43.92;100137.09;2094070;28;20047;-52
2021/03/10 13:05:25;;;;;;;17.03;13.10;;;;;;;19.95;44.02;100126.16;2097519;28;20948;-53
2021/03/10 13:06:26;;;;;;;18.00;13.60;;;;;;;19.95;43.95;100134.34;2088959;28;20021;-54
2021/03/10 13:07:26;;;;;;;14.83;12.57;;;;;;;19.95;43.98;100128.88;2087824;28;20139;-53
2021/03/10 13:08:27;;;;;;;18.70;13.43;;;;;;;19.95;44.07;100126.16;2089595;28;20036;-53
2021/03/10 13:09:27;;;;;;;15.93;12.63;;;;;;;19.96;44.07;100129.72;2090260;28;20241;-52
2021/03/10 13:10:27;;;;;;;16.63;13.50;;;;;;;19.95;44.11;100120.66;2087806;28;20281;-52
2021/03/10 13:11:28;;;;;;;16.20;13.20;;;;;;;19.94;44.03;100118.94;2086454;28;20087;-52
2021/03/10 13:12:31;;;;;;;17.57;13.10;;;;;;;19.94;44.08;100113.47;2089208;28;20062;-54
2021/03/10 13:13:32;;;;;;;15.35;12.77;;;;;;;19.93;44.03;100117.22;2085464;28;20125;-53
2021/03/10 13:14:32;;;;;;;14.93;12.07;;;;;;;19.93;44.08;100106.28;2085754;28;20020;-54
2021/03/10 13:15:33;;;;;;;13.53;12.13;;;;;;;19.95;43.91;100115.19;2088564;28;20023;-53
2021/03/10 13:16:35;;;;;;;16.60;12.17;;;;;;;19.94;43.92;100102.53;2087679;28;20487;-54
2021/03/10 13:17:36;;;;;;;14.57;12.10;;;;;;;19.94;43.94;100108.00;2090000;28;20095;-54
2021/03/10 13:18:36;;;;;;;14.97;12.57;;;;;;;19.95;43.94;100109.72;2080877;28;20328;-53
2021/03/10 13:19:37;;;;;;;16.90;13.23;;;;;;;19.95;43.88;100104.25;2086099;28;20505;-55
2021/03/10 13:20:37;;;;;;;16.37;12.57;;;;;;;19.94;43.87;100099.78;2088267;28;20033;-55
2021/03/10 13:21:38;;;;;;;16.17;13.73;;;;;;;19.94;44.03;100097.03;2088157;28;20487;-54
2021/03/10 13:22:38;;;;;;;17.47;12.57;;;;;;;19.95;43.93;100087.84;2088128;28;20017;-55
2021/03/10 13:23:39;;;;;;;15.27;12.53;;;;;;;19.98;44.07;100093.00;2088530;28;20491;-54
2021/03/10 13:24:39;;;;;;;15.60;12.50;;;;;;;19.97;43.99;100091.28;2088008;28;20028;-54
2021/03/10 13:25:40;;;;;;;15.93;12.77;;;;;;;20.00;43.94;100090.97;2088979;28;20443;-54
2021/03/10 13:26:41;;;;;;;20.05;12.43;;;;;;;20.00;44.02;100093.69;2086992;28;20029;-52
2021/03/10 13:27:43;;;;;;;14.60;11.90;;;;;;;20.01;44.03;100092.66;2088272;28;20486;-55
2021/03/10 13:28:44;;;;;;;17.40;12.27;;;;;;;20.03;43.95;100089.78;2088520;28;20021;-52
2021/03/10 13:29:44;;;;;;;14.93;11.37;;;;;;;20.04;44.08;100096.97;2080426;28;20032;-51
2021/03/10 13:30:44;;;;;;;14.80;11.53;;;;;;;20.06;44.05;100090.34;2079903;28;20021;-50
2021/03/10 13:31:45;;;;;;;17.10;11.57;;;;;;;20.09;44.00;100094.66;2088764;28;20103;-49
2021/03/10 13:32:45;;;;;;;13.30;11.13;;;;;;;20.09;44.03;100095.50;2088102;28;20031;-51
2021/03/10 13:33:46;;;;;;;16.17;11.53;;;;;;;20.08;44.02;100093.78;2089794;28;20025;-50
2021/03/10 13:34:46;;;;;;;12.93;10.80;;;;;;;20.09;44.03;100095.50;2088645;28;20439;-49
2021/03/10 13:35:47;;;;;;;14.97;11.10;;;;;;;20.09;44.29;100094.66;2087465;28;20037;-49
2021/03/10 13:36:47;;;;;;;17.23;12.47;;;;;;;20.08;44.17;100088.28;2092289;28;20106;-51
2021/03/10 13:37:48;;;;;;;13.77;11.37;;;;;;;20.07;44.25;100091.22;2092532;28;20362;-51
2021/03/10 13:38:49;;;;;;;17.30;11.70;;;;;;;20.06;44.30;100090.34;2095115;28;20032;-49
2021/03/10 13:39:50;;;;;;;14.80;12.02;;;;;;;20.07;44.28;100092.06;2087660;28;20036;-50
2021/03/10 13:40:51;;;;;;;11.67;10.33;;;;;;;20.07;44.32;100092.06;2088605;28;20025;-52
2021/03/10 13:41:51;;;;;;;14.48;12.07;;;;;;;20.08;44.43;100095.66;2087892;28;20021;-51
2021/03/10 13:42:52;;;;;;;14.60;11.17;;;;;;;20.07;44.34;100094.81;2086565;28;20047;-52
2021/03/10 13:43:52;;;;;;;13.20;11.20;;;;;;;20.06;44.35;100084.88;2081378;28;20036;-52
2021/03/10 13:44:53;;;;;;;14.37;10.83;;;;;;;20.06;44.37;100084.88;2084531;28;20064;-50
2021/03/10 13:45:54;;;;;;;13.83;11.70;;;;;;;20.06;44.43;100090.34;2082730;28;20439;-49
2021/03/10 13:46:55;;;;;;;15.48;10.80;;;;;;;20.06;44.45;100084.88;2081089;28;20029;-49
2021/03/10 13:47:56;;;;;;;13.60;11.63;;;;;;;20.05;44.40;100082.28;2084005;28;20053;-50
2021/03/10 13:48:56;;;;;;;14.33;11.43;;;;;;;20.05;44.57;100080.41;2096485;28;20028;-52
2021/03/10 13:49:57;;;;;;;15.20;12.00;;;;;;;20.04;44.52;100081.44;2090119;28;20214;-50
2021/03/10 13:50:57;;;;;;;13.73;11.53;;;;;;;20.03;44.60;100071.50;2087232;28;20393;-49
2021/03/10 13:51:58;;;;;;;14.67;11.33;;;;;;;20.03;44.60;100074.22;2088837;28;20039;-49
2021/03/10 13:52:58;;;;;;;17.13;11.67;;;;;;;20.03;44.60;100076.97;2088494;28;20110;-51
2021/03/10 13:53:59;;;;;;;14.83;10.87;;;;;;;20.03;44.53;100074.22;2097494;28;20083;-50
2021/03/10 13:54:59;;;;;;;14.30;10.33;;;;;;;20.04;44.67;100081.44;2091583;28;20021;-49
2021/03/10 13:56:00;;;;;;;13.10;10.77;;;;;;;20.03;44.56;100074.22;2092015;28;20133;-52
2021/03/10 13:57:00;;;;;;;14.30;11.07;;;;;;;20.02;44.62;100079.88;2088236;28;20021;-50
2021/03/10 13:58:00;;;;;;;13.20;11.23;;;;;;;19.96;44.85;100073.13;2086205;28;20138;-49
2021/03/10 13:59:01;;;;;;;19.10;12.40;;;;;;;19.91;44.99;100075.47;2088282;28;20035;-52
2021/03/10 14:00:04;;;;;;;14.80;11.63;;;;;;;19.88;44.94;100075.81;2088537;28;20086;-52
2021/03/10 14:01:06;;;;;;;12.10;10.52;;;;;;;19.86;44.92;100083.28;2082185;28;20237;-51
2021/03/10 14:02:06;;;;;;;11.88;10.68;;;;;;;19.86;44.88;100073.22;2085877;28;20057;-50
2021/03/10 14:03:07;;;;;;;13.43;11.83;;;;;;;19.88;44.88;100075.81;2093446;28;20033;-50
2021/03/10 14:04:07;;;;;;;15.17;10.97;;;;;;;19.91;44.67;100081.81;2089619;28;20033;-50
2021/03/10 14:05:08;;;;;;;12.90;11.47;;;;;;;19.91;44.82;100084.53;2093631;28;20025;-50
2021/03/10 14:06:09;;;;;;;13.60;9.73;;;;;;;19.87;44.76;100074.09;2092818;28;20054;-50
2021/03/10 14:07:09;;;;;;;15.00;10.67;;;;;;;19.82;44.81;100076.41;2090955;28;20089;-51
2021/03/10 14:08:09;;;;;;;13.60;10.83;;;;;;;19.75;44.47;100081.66;2080212;28;20029;-50
2021/03/10 14:09:10;;;;;;;15.13;9.83;;;;;;;19.65;43.40;100081.69;2088319;28;20029;-49
2021/03/10 14:10:11;;;;;;;13.80;10.50;;;;;;;19.62;43.84;100078.38;2088731;28;20025;-50
2021/03/10 14:11:11;;;;;;;15.33;11.50;;;;;;;19.56;43.07;100070.81;2088884;28;20060;-49